createdAt,value
2022-09-27T00:00:09.510Z,98583.38
2022-09-27T00:03:16.073Z,98583.47
2022-09-27T00:06:25.281Z,98580.06
2022-09-27T00:09:30.358Z,98585.31
2022-09-27T00:12:33.591Z,98567.66
2022-09-27T00:15:36.801Z,98574.59
2022-09-27T00:18:41.763Z,98579.13
2022-09-27T00:21:47.835Z,98575.28
2022-09-27T00:24:53.110Z,98569.28
2022-09-27T00:27:56.379Z,98561.22
2022-09-27T00:31:02.329Z,98561.59
2022-09-27T00:34:07.272Z,98567.34
2022-09-27T00:37:11.534Z,98574.59
2022-09-27T00:40:19.658Z,98571.03
2022-09-27T00:43:24.919Z,98574.59
2022-09-27T00:46:31.281Z,98563.69
2022-09-27T00:49:41.916Z,98561.84
2022-09-27T00:52:55.390Z,98551.94
2022-09-27T00:56:04.671Z,98550.78
2022-09-27T00:59:13.131Z,98549.31
2022-09-27T01:02:16.860Z,98557.09
2022-09-27T01:05:23.236Z,98548.72
2022-09-27T01:08:26.573Z,98534.47
2022-09-27T01:11:43.801Z,98532.72
2022-09-27T01:15:03.171Z,98531.66
2022-09-27T01:18:19.351Z,98544.69
2022-09-27T01:21:47.316Z,98547.00
2022-09-27T01:24:59.486Z,98538.56
2022-09-27T01:28:34.656Z,98548.63
2022-09-27T01:31:44.255Z,98540.66
2022-09-27T01:34:57.998Z,98544.47
2022-09-27T01:38:16.585Z,98545.97
2022-09-27T01:41:31.227Z,98543.19
2022-09-27T01:45:02.467Z,98541.47
2022-09-27T01:48:19.063Z,98551.72
2022-09-27T01:51:34.053Z,98544.44
2022-09-27T01:54:40.918Z,98524.50
2022-09-27T01:58:11.859Z,98539.72
2022-09-27T02:01:18.188Z,98540.66
2022-09-27T02:04:28.077Z,98536.38
2022-09-27T02:07:49.606Z,98526.47
2022-09-27T02:10:57.480Z,98525.22
2022-09-27T02:14:08.101Z,98506.31
2022-09-27T02:17:25.382Z,98492.59
2022-09-27T02:20:36.994Z,98510.47
2022-09-27T02:23:45.761Z,98509.66
2022-09-27T02:26:58.114Z,98513.94
2022-09-27T02:30:06.193Z,98520.13
2022-09-27T02:33:10.846Z,98519.31
2022-09-27T02:36:17.630Z,98529.22
2022-09-27T02:39:22.239Z,98545.59
2022-09-27T02:42:36.228Z,98553.22
2022-09-27T02:45:55.195Z,98548.47
2022-09-27T02:49:12.061Z,98553.56
2022-09-27T02:52:28.858Z,98548.03
2022-09-27T02:55:44.344Z,98531.09
2022-09-27T02:59:15.283Z,98537.44
2022-09-27T03:02:37.325Z,98532.38
2022-09-27T03:06:05.001Z,98531.41
2022-09-27T03:09:15.776Z,98522.66
2022-09-27T03:12:26.065Z,98527.97
2022-09-27T03:15:29.442Z,98506.75
2022-09-27T03:18:38.462Z,98519.13
2022-09-27T03:22:04.773Z,98513.25
2022-09-27T03:25:10.429Z,98502.19
2022-09-27T03:28:14.187Z,98490.91
2022-09-27T03:31:18.977Z,98501.63
2022-09-27T03:34:34.602Z,98515.56
2022-09-27T03:37:37.994Z,98507.31
2022-09-27T03:40:42.771Z,98496.19
2022-09-27T03:43:47.008Z,98484.34
2022-09-27T03:46:52.364Z,98481.97
2022-09-27T03:49:56.066Z,98469.09
2022-09-27T03:52:59.325Z,98478.13
2022-09-27T03:56:05.417Z,98479.06
2022-09-27T03:59:08.708Z,98478.41
2022-09-27T04:02:32.013Z,98489.94
2022-09-27T04:05:55.680Z,98492.16
2022-09-27T04:09:08.418Z,98482.25
2022-09-27T04:12:33.294Z,98451.78
2022-09-27T04:15:37.797Z,98458.31
2022-09-27T04:19:07.338Z,98458.34
2022-09-27T04:22:16.762Z,98454.31
2022-09-27T04:25:20.604Z,98459.91
2022-09-27T04:28:28.079Z,98462.38
2022-09-27T04:31:31.461Z,98468.75
2022-09-27T04:35:06.743Z,98472.56
2022-09-27T04:38:10.050Z,98468.63
2022-09-27T04:41:13.742Z,98465.00
2022-09-27T04:44:18.846Z,98463.84
2022-09-27T04:47:26.092Z,98454.03
2022-09-27T04:50:32.179Z,98455.78
2022-09-27T04:53:40.402Z,98443.25
2022-09-27T04:56:43.825Z,98443.94
2022-09-27T04:59:51.756Z,98436.78
2022-09-27T05:02:55.252Z,98446.66
2022-09-27T05:06:14.030Z,98446.13
2022-09-27T05:09:18.380Z,98449.78
2022-09-27T05:12:26.927Z,98453.13
2022-09-27T05:15:36.322Z,98447.94
2022-09-27T05:19:11.795Z,98450.53
2022-09-27T05:22:41.558Z,98462.03
2022-09-27T05:25:45.471Z,98449.00
2022-09-27T05:28:48.858Z,98438.84
2022-09-27T05:31:54.160Z,98426.00
2022-09-27T05:34:57.724Z,98425.16
2022-09-27T05:38:01.863Z,98437.22
2022-09-27T05:41:08.101Z,98435.09
2022-09-27T05:44:13.339Z,98432.13
2022-09-27T05:47:24.449Z,98407.50
2022-09-27T05:50:28.816Z,98413.38
2022-09-27T05:53:32.906Z,98419.22
2022-09-27T05:56:39.183Z,98426.34
2022-09-27T06:00:00.661Z,98426.63
2022-09-27T06:03:22.530Z,98419.13
2022-09-27T06:06:51.931Z,98411.34
2022-09-27T06:09:55.392Z,98409.94
2022-09-27T06:13:01.325Z,98413.38
2022-09-27T06:16:13.806Z,98402.00
2022-09-27T06:19:22.760Z,98407.34
2022-09-27T06:22:26.587Z,98401.94
2022-09-27T06:25:35.597Z,98403.19
2022-09-27T06:28:56.140Z,98417.44
2022-09-27T06:31:59.929Z,98431.09
2022-09-27T06:35:11.547Z,98450.44
2022-09-27T06:38:16.891Z,98436.66
2022-09-27T06:41:27.594Z,98448.06
2022-09-27T06:44:50.467Z,98449.31
2022-09-27T06:48:19.961Z,98439.63
2022-09-27T06:51:44.832Z,98423.13
2022-09-27T06:54:48.076Z,98436.81
2022-09-27T06:58:12.289Z,98440.34
2022-09-27T07:01:20.644Z,98442.16
2022-09-27T07:04:43.068Z,98432.69
2022-09-27T07:08:05.966Z,98436.59
2022-09-27T07:11:10.077Z,98437.59
2022-09-27T07:14:13.351Z,98438.72
2022-09-27T07:17:16.707Z,98436.56
2022-09-27T07:20:22.284Z,98435.00
2022-09-27T07:23:27.260Z,98426.91
2022-09-27T07:26:31.307Z,98424.88
2022-09-27T07:29:35.082Z,98422.31
2022-09-27T07:32:38.890Z,98412.25
2022-09-27T07:35:45.089Z,98401.88
2022-09-27T07:38:49.760Z,98409.47
2022-09-27T07:41:55.392Z,98420.88
2022-09-27T07:44:59.103Z,98418.53
2022-09-27T07:48:20.995Z,98422.88
2022-09-27T07:51:50.366Z,98437.31
2022-09-27T07:55:14.459Z,98429.44
2022-09-27T07:58:33.570Z,98429.25
2022-09-27T08:01:46.535Z,98425.22
2022-09-27T08:04:49.943Z,98428.97
2022-09-27T08:07:57.565Z,98424.22
2022-09-27T08:11:03.506Z,98422.44
2022-09-27T08:14:06.957Z,98416.19
2022-09-27T08:17:11.875Z,98418.50
2022-09-27T08:20:38.217Z,98414.22
2022-09-27T08:24:01.381Z,98412.84
2022-09-27T08:27:12.199Z,98421.06
2022-09-27T08:30:32.476Z,98419.88
2022-09-27T08:33:41.419Z,98410.22
2022-09-27T08:36:46.166Z,98414.50
2022-09-27T08:39:49.760Z,98417.97
2022-09-27T08:43:05.249Z,98415.25
2022-09-27T08:46:23.912Z,98410.56
2022-09-27T08:49:34.869Z,98388.28
2022-09-27T08:52:43.816Z,98385.09
2022-09-27T08:55:52.338Z,98392.66
2022-09-27T08:59:13.676Z,98385.75
2022-09-27T09:02:20.873Z,98382.00
2022-09-27T09:05:31.950Z,98376.69
2022-09-27T09:08:50.800Z,98376.38
2022-09-27T09:12:25.236Z,98383.06
2022-09-27T09:15:54.477Z,98373.00
2022-09-27T09:19:16.449Z,98372.44
2022-09-27T09:22:54.869Z,98372.63
2022-09-27T09:26:08.086Z,98354.59
2022-09-27T09:29:25.936Z,98344.03
2022-09-27T09:32:45.676Z,98340.97
2022-09-27T09:35:55.005Z,98335.03
2022-09-27T09:39:04.027Z,98325.41
2022-09-27T09:42:14.335Z,98313.63
2022-09-27T09:45:22.667Z,98313.72
2022-09-27T09:48:33.964Z,98312.88
2022-09-27T09:51:47.515Z,98308.28
2022-09-27T09:54:56.286Z,98295.59
2022-09-27T09:58:07.033Z,98290.16
2022-09-27T10:01:23.144Z,98285.38
2022-09-27T10:04:29.406Z,98282.59
2022-09-27T10:07:40.145Z,98282.69
2022-09-27T10:10:46.535Z,98285.44
2022-09-27T10:14:12.884Z,98281.56
2022-09-27T10:17:21.482Z,98275.84
2022-09-27T10:20:36.652Z,98288.78
2022-09-27T10:24:16.804Z,98268.97
2022-09-27T10:27:42.054Z,98273.38
2022-09-27T10:30:57.366Z,98261.16
2022-09-27T10:34:05.650Z,98268.63
2022-09-27T10:37:24.117Z,98258.69
2022-09-27T10:40:35.444Z,98252.53
2022-09-27T10:43:43.181Z,98248.69
2022-09-27T10:47:08.540Z,98239.19
2022-09-27T10:50:46.018Z,98236.00
2022-09-27T10:54:04.284Z,98223.91
2022-09-27T10:57:21.470Z,98223.88
2022-09-27T11:00:27.839Z,98218.63
2022-09-27T11:03:33.016Z,98228.03
2022-09-27T11:06:39.368Z,98217.22
2022-09-27T11:09:55.226Z,98217.78
2022-09-27T11:13:19.440Z,98223.94
2022-09-27T11:16:42.093Z,98215.59
2022-09-27T11:19:57.557Z,98213.25
2022-09-27T11:23:19.411Z,98205.69
2022-09-27T11:26:40.839Z,98202.19
2022-09-27T11:29:57.933Z,98208.56
2022-09-27T11:33:54.196Z,98202.94
2022-09-27T11:37:19.251Z,98202.03
2022-09-27T11:40:32.919Z,98197.16
2022-09-27T11:44:06.516Z,98183.72
2022-09-27T11:47:21.661Z,98175.66
2022-09-27T11:50:53.757Z,98176.66
2022-09-27T11:54:27.911Z,98167.59
2022-09-27T11:57:37.684Z,98161.81
2022-09-27T12:00:55.712Z,98148.00
2022-09-27T12:04:29.218Z,98155.91
2022-09-27T12:07:43.495Z,98151.88
2022-09-27T12:10:52.784Z,98148.00
2022-09-27T12:14:03.597Z,98147.91
2022-09-27T12:17:14.101Z,98146.59
2022-09-27T12:20:24.805Z,98144.63
2022-09-27T12:23:36.729Z,98145.63
2022-09-27T12:27:03.837Z,98143.69
2022-09-27T12:30:08.682Z,98142.94
2022-09-27T12:33:20.358Z,98131.66
2022-09-27T12:36:29.591Z,98132.50
2022-09-27T12:39:45.548Z,98133.59
2022-09-27T12:43:02.174Z,98124.97
2022-09-27T12:46:34.257Z,98115.41
2022-09-27T12:49:51.035Z,98115.09
2022-09-27T12:53:04.533Z,98103.03
2022-09-27T12:56:27.764Z,98100.03
2022-09-27T12:59:53.511Z,98096.06
2022-09-27T13:03:25.984Z,98089.88
2022-09-27T13:07:11.138Z,98099.25
2022-09-27T13:10:36.683Z,98094.00
2022-09-27T13:13:50.850Z,98104.09
2022-09-27T13:16:54.416Z,98096.03
2022-09-27T13:19:59.604Z,98093.06
2022-09-27T13:23:06.770Z,98096.41
2022-09-27T13:26:24.402Z,98083.66
2022-09-27T13:29:37.029Z,98085.94
2022-09-27T13:33:23.878Z,98081.38
2022-09-27T13:36:34.170Z,98087.59
2022-09-27T13:39:46.422Z,98086.97
2022-09-27T13:43:41.655Z,98073.34
2022-09-27T13:47:07.017Z,98087.66
2022-09-27T13:50:21.501Z,98074.22
2022-09-27T13:53:36.621Z,98100.22
2022-09-27T13:56:56.316Z,98119.19
2022-09-27T14:00:05.281Z,98132.16
2022-09-27T14:03:31.756Z,98140.81
2022-09-27T14:06:46.109Z,98124.19
2022-09-27T14:09:55.575Z,98121.66
2022-09-27T14:13:07.256Z,98127.09
2022-09-27T14:16:20.978Z,98112.84
2022-09-27T14:19:29.034Z,98096.75
2022-09-27T14:22:34.880Z,98109.38
2022-09-27T14:25:40.685Z,98137.78
2022-09-27T14:28:45.790Z,98124.53
2022-09-27T14:32:06.139Z,98119.97
2022-09-27T14:35:41.187Z,98117.00
2022-09-27T14:38:45.436Z,98113.25
2022-09-27T14:42:05.178Z,98102.59
2022-09-27T14:45:23.746Z,98098.03
2022-09-27T14:48:32.263Z,98098.28
2022-09-27T14:51:35.830Z,98103.56
2022-09-27T14:54:39.740Z,98106.78
2022-09-27T14:57:48.290Z,98108.41
2022-09-27T15:00:52.999Z,98115.88
2022-09-27T15:03:58.470Z,98123.66
2022-09-27T15:07:03.377Z,98115.63
2022-09-27T15:10:07.809Z,98113.75
2022-09-27T15:13:16.143Z,98105.53
2022-09-27T15:16:24.252Z,98093.91
2022-09-27T15:19:29.368Z,98090.97
2022-09-27T15:22:45.018Z,98106.69
2022-09-27T15:26:04.034Z,98107.22
2022-09-27T15:29:07.735Z,98097.59
2022-09-27T15:32:18.847Z,98063.69
2022-09-27T15:35:26.691Z,98061.84
2022-09-27T15:38:32.779Z,98053.34
2022-09-27T15:42:05.831Z,98060.50
2022-09-27T15:45:29.286Z,98086.88
2022-09-27T15:48:37.729Z,98091.69
2022-09-27T15:51:42.370Z,98091.22
2022-09-27T15:54:45.615Z,98096.06
2022-09-27T15:57:52.486Z,98112.56
2022-09-27T16:00:57.804Z,98118.41
2022-09-27T16:04:03.879Z,98120.53
2022-09-27T16:07:10.050Z,98144.06
2022-09-27T16:10:15.833Z,98155.50
2022-09-27T16:13:19.123Z,98148.59
2022-09-27T16:16:23.562Z,98143.50
2022-09-27T16:19:28.227Z,98094.97
2022-09-27T16:22:31.444Z,98076.34
2022-09-27T16:25:34.765Z,98045.09
2022-09-27T16:28:38.097Z,98095.44
2022-09-27T16:31:41.527Z,98097.81
2022-09-27T16:34:46.215Z,98092.50
2022-09-27T16:37:50.032Z,98096.50
2022-09-27T16:40:53.341Z,98094.97
2022-09-27T16:43:56.618Z,98119.47
2022-09-27T16:46:59.914Z,98126.97
2022-09-27T16:50:22.488Z,98133.72
2022-09-27T16:53:25.771Z,98128.19
2022-09-27T16:56:29.312Z,98115.13
2022-09-27T16:59:32.521Z,98114.88
2022-09-27T17:02:36.232Z,98109.25
2022-09-27T17:05:40.802Z,98115.91
2022-09-27T17:08:44.158Z,98122.09
2022-09-27T17:11:47.430Z,98132.41
2022-09-27T17:14:50.633Z,98147.03
2022-09-27T17:17:53.809Z,98130.00
2022-09-27T17:21:03.572Z,98128.66
2022-09-27T17:24:07.715Z,98125.47
2022-09-27T17:27:10.952Z,98131.47
2022-09-27T17:30:14.160Z,98149.88
2022-09-27T17:33:20.497Z,98150.06
2022-09-27T17:36:27.076Z,98146.34
2022-09-27T17:39:30.305Z,98162.69
2022-09-27T17:42:33.779Z,98161.69
2022-09-27T17:45:36.980Z,98172.84
2022-09-27T17:48:57.539Z,98180.41
2022-09-27T17:52:02.459Z,98187.91
2022-09-27T17:55:06.603Z,98187.47
2022-09-27T17:58:09.773Z,98182.09
2022-09-27T18:01:12.994Z,98181.84
2022-09-27T18:04:19.700Z,98182.16
2022-09-27T18:07:24.294Z,98193.97
2022-09-27T18:10:27.579Z,98214.66
2022-09-27T18:13:40.810Z,98214.56
2022-09-27T18:16:44.310Z,98242.91
2022-09-27T18:19:47.526Z,98262.00
2022-09-27T18:22:53.317Z,98246.41
2022-09-27T18:25:57.811Z,98267.59
2022-09-27T18:29:02.911Z,98287.94
2022-09-27T18:32:06.190Z,98295.84
2022-09-27T18:35:10.081Z,98308.38
2022-09-27T18:38:18.732Z,98315.34
2022-09-27T18:41:24.859Z,98318.19
2022-09-27T18:44:28.537Z,98332.13
2022-09-27T18:47:34.266Z,98341.66
2022-09-27T18:50:38.354Z,98336.03
2022-09-27T18:53:43.641Z,98330.63
2022-09-27T18:56:50.927Z,98330.00
2022-09-27T18:59:54.568Z,98336.28
2022-09-27T19:02:58.432Z,98343.09
2022-09-27T19:06:04.329Z,98351.19
2022-09-27T19:09:11.623Z,98338.13
2022-09-27T19:12:15.329Z,98340.22
2022-09-27T19:15:18.836Z,98337.03
2022-09-27T19:18:22.662Z,98338.09
2022-09-27T19:21:28.290Z,98347.19
2022-09-27T19:24:33.110Z,98339.81
2022-09-27T19:27:42.472Z,98358.00
2022-09-27T19:30:47.281Z,98378.31
2022-09-27T19:33:54.011Z,98390.63
2022-09-27T19:36:59.578Z,98395.03
2022-09-27T19:40:05.068Z,98402.13
2022-09-27T19:43:08.474Z,98397.91
2022-09-27T19:46:15.403Z,98398.06
2022-09-27T19:49:19.446Z,98403.19
2022-09-27T19:52:22.896Z,98394.22
2022-09-27T19:55:27.746Z,98401.56
2022-09-27T19:58:33.147Z,98406.13
2022-09-27T20:01:37.112Z,98406.19
2022-09-27T20:04:40.542Z,98394.94
2022-09-27T20:10:56.701Z,98398.44
2022-09-27T20:14:00.685Z,98394.09
2022-09-27T20:17:04.465Z,98388.28
2022-09-27T20:20:16.314Z,98396.66
2022-09-27T20:23:25.549Z,98399.91
2022-09-27T20:26:32.569Z,98403.53
2022-09-27T20:29:36.468Z,98401.88
2022-09-27T20:32:39.908Z,98411.78
2022-09-27T20:35:51.580Z,98405.47
2022-09-27T20:39:01.138Z,98404.47
2022-09-27T20:42:07.471Z,98394.34
2022-09-27T20:45:11.156Z,98397.13
2022-09-27T20:48:14.842Z,98401.94
2022-09-27T20:51:18.099Z,98404.75
2022-09-27T20:54:21.377Z,98407.88
2022-09-27T20:57:46.366Z,98415.22
2022-09-27T21:00:49.512Z,98417.47
2022-09-27T21:03:55.422Z,98418.88
2022-09-27T21:06:58.927Z,98430.00
2022-09-27T21:10:02.187Z,98434.09
2022-09-27T21:13:06.892Z,98427.00
2022-09-27T21:16:14.379Z,98421.19
2022-09-27T21:19:18.369Z,98423.88
2022-09-27T21:22:21.722Z,98431.03
2022-09-27T21:25:24.868Z,98441.56
2022-09-27T21:28:33.083Z,98440.44
2022-09-27T21:31:36.698Z,98444.00
2022-09-27T21:34:40.053Z,98441.41
2022-09-27T21:37:44.010Z,98433.19
2022-09-27T21:40:55.319Z,98423.06
2022-09-27T21:43:59.993Z,98432.19
2022-09-27T21:47:03.675Z,98440.50
2022-09-27T21:50:07.841Z,98433.56
2022-09-27T21:53:11.053Z,98422.63
2022-09-27T21:56:14.287Z,98431.84
2022-09-27T21:59:19.123Z,98432.69
2022-09-27T22:02:23.627Z,98447.00
2022-09-27T22:05:26.913Z,98442.78
2022-09-27T22:08:30.394Z,98443.50
2022-09-27T22:11:35.374Z,98444.34
2022-09-27T22:14:40.010Z,98435.09
2022-09-27T22:17:43.217Z,98436.09
2022-09-27T22:20:46.834Z,98438.53
2022-09-27T22:23:54.166Z,98429.34
2022-09-27T22:26:57.567Z,98433.34
2022-09-27T22:30:02.217Z,98436.25
2022-09-27T22:33:05.623Z,98437.16
2022-09-27T22:36:09.178Z,98443.25
2022-09-27T22:39:12.598Z,98444.31
2022-09-27T22:42:15.813Z,98448.56
2022-09-27T22:45:20.505Z,98447.53
2022-09-27T22:48:23.779Z,98449.41
2022-09-27T22:51:27.179Z,98458.25
2022-09-27T22:54:30.478Z,98451.00
2022-09-27T22:57:33.704Z,98459.97
2022-09-27T23:00:38.894Z,98454.56
2022-09-27T23:03:42.320Z,98448.69
2022-09-27T23:06:45.715Z,98458.75
2022-09-27T23:09:48.947Z,98452.44
2022-09-27T23:12:55.866Z,98455.78
2022-09-27T23:16:03.398Z,98457.56
2022-09-27T23:19:08.297Z,98469.44
2022-09-27T23:22:11.548Z,98463.19
2022-09-27T23:25:15.145Z,98455.59
2022-09-27T23:28:18.366Z,98455.47
2022-09-27T23:31:24.100Z,98458.16
2022-09-27T23:34:27.433Z,98468.06
2022-09-27T23:37:30.835Z,98469.91
2022-09-27T23:40:36.068Z,98471.03
2022-09-27T23:43:39.461Z,98466.88
2022-09-27T23:46:44.265Z,98470.09
2022-09-27T23:49:47.558Z,98470.16
2022-09-27T23:52:50.833Z,98468.13
2022-09-27T23:56:04.796Z,98467.25
2022-09-27T23:59:09.009Z,98470.16
